Terminal Aerodrome Forecast
Issued by NWS Charleston, WV

Home | Current Version | Previous Version | Text Only | Print | Product List | Glossary On
Versions: 1 2 3 4 5 6 7 8 9 10 11 12 13 14 15 16 17 18 19 20 21 22
000
FTUS41 KRLX 240901 AAA
TAFPKB
TAF AMD
KPKB 240901Z 2409/2506 00000KT 4SM BR SKC
     FM241000 00000KT 2SM BR SCT001
     FM241200 00000KT 3SM BR SCT001
     FM241300 VRB03KT P6SM SCT005
     FM241500 24003KT P6SM SCT045=

USA.gov is the U.S. government's official web portal to all federal, state and local government web resources and services.